Cowiche, Washington
Current Conditions -  °F | °C
As of 3:53 AM on Friday 24 Oct 2014 (Local Time) from KYKM Reporting Station
Scattered Clouds Scattered Clouds  
Wind Chill: 39°   Ceiling: Unl
Heat Index: 42°   Visibility: 10mi
Dew Point: 38°   Wind: 5mph
Humidity: 85%   Direction: 290°WNW
Pressure: 30.04"   Gusts: NA
Location:  46.67°N, 120.71°W
Report Text: KYKM 241053Z AUTO 29004KT 10SM SCT090 06/03 A3004 RMK AO2 SLP175 T00560033
Loading
Personal Weather Stations






























Interactive Weather Map
Tropical Storm Tracking
New forecast layout! Learn more

10-Day Weather Forecast

Advertisements
Track Severe Weather on mobile